Time;durP1;ratioP1;P1;durP2;ratioP2;P2;SDS_P1;SDS_P2;PMS_P1;PMS_P2;Temp;Humidity;BMP_temperature;BMP_pressure;BME280_temperature;BME280_humidity;BME280_pressure;Samples;Min_cycle;Max_cycle;Signal;HPM_P1;HPM_P2
2022/06/11 00:02:02;;;;;;;35.30;5.45;;;12.30;99.90;;;;;;5045413;28;20109;-73
2022/06/11 00:04:42;;;;;;;33.13;6.15;;;12.30;99.90;;;;;;5050415;28;20421;-72
2022/06/11 00:07:21;;;;;;;33.22;5.90;;;12.20;99.90;;;;;;5053928;28;20055;-72
2022/06/11 00:09:47;;;;;;;23.25;4.32;;;12.10;99.90;;;;;;5057198;28;20073;-72
2022/06/11 00:12:13;;;;;;;18.85;4.30;;;12.20;99.90;;;;;;5051875;28;20559;-72
2022/06/11 00:14:40;;;;;;;19.63;3.85;;;12.20;99.90;;;;;;5058793;28;20429;-72
2022/06/11 00:17:08;;;;;;;28.15;4.68;;;12.20;99.90;;;;;;5054470;28;20054;-74
2022/06/11 00:19:35;;;;;;;20.27;4.32;;;12.10;99.90;;;;;;5057758;28;20031;-73
2022/06/11 00:22:03;;;;;;;22.77;3.92;;;12.00;99.90;;;;;;5043410;28;20487;-74
2022/06/11 00:24:29;;;;;;;22.25;4.40;;;12.00;99.90;;;;;;5053567;28;20033;-74
2022/06/11 00:26:57;;;;;;;35.22;5.00;;;12.00;99.90;;;;;;5046631;28;20028;-74
2022/06/11 00:29:25;;;;;;;31.02;5.47;;;11.90;99.90;;;;;;5051557;28;20048;-74
2022/06/11 00:31:51;;;;;;;21.02;4.45;;;11.90;99.90;;;;;;5055708;28;20039;-74
2022/06/11 00:34:17;;;;;;;32.17;5.55;;;11.80;99.90;;;;;;5047396;28;20040;-74
2022/06/11 00:36:43;;;;;;;36.13;5.28;;;11.70;99.90;;;;;;5059610;28;20040;-74
2022/06/11 00:39:11;;;;;;;23.48;4.38;;;11.70;99.90;;;;;;5052135;28;20032;-74
2022/06/11 00:41:41;;;;;;;26.95;4.80;;;11.60;99.90;;;;;;5062261;28;20033;-74
2022/06/11 00:44:07;;;;;;;22.45;4.45;;;11.60;99.90;;;;;;5058605;28;20086;-74
2022/06/11 00:46:47;;;;;;;27.48;4.60;;;11.50;99.90;;;;;;5051777;28;20036;-74
2022/06/11 00:49:34;;;;;;;29.42;4.80;;;11.50;99.90;;;;;;5047598;28;20032;-74
2022/06/11 00:52:22;;;;;;;27.60;4.50;;;11.40;99.90;;;;;;5060227;28;20062;-74
2022/06/11 00:55:13;;;;;;;27.77;4.90;;;11.30;99.90;;;;;;5053777;28;20033;-74
2022/06/11 00:57:46;;;;;;;30.55;5.75;;;11.30;99.90;;;;;;5040852;28;20036;-74
2022/06/11 01:00:18;;;;;;;33.03;5.53;;;11.30;99.90;;;;;;5040474;28;20544;-74
2022/06/11 01:02:45;;;;;;;24.80;5.13;;;11.30;99.90;;;;;;5059923;28;20726;-74
2022/06/11 01:05:18;;;;;;;30.77;5.28;;;11.30;99.90;;;;;;5045038;28;20113;-75
2022/06/11 01:08:25;;;;;;;28.40;5.28;;;11.30;99.90;;;;;;5062390;28;20044;-74
2022/06/11 01:11:19;;;;;;;19.55;4.90;;;11.20;99.90;;;;;;5037149;28;20047;-74
2022/06/11 01:14:09;;;;;;;27.88;5.00;;;11.20;99.90;;;;;;5057054;28;20029;-74
2022/06/11 01:16:34;;;;;;;32.20;5.97;;;11.20;99.90;;;;;;5051550;28;20028;-75
2022/06/11 01:19:26;;;;;;;24.30;5.03;;;11.20;99.90;;;;;;5051554;28;20039;-74
2022/06/11 01:22:35;;;;;;;24.70;4.95;;;11.10;99.90;;;;;;5056217;28;20564;-74
2022/06/11 01:25:09;;;;;;;41.35;6.07;;;11.10;99.90;;;;;;5050582;28;20123;-72
2022/06/11 01:27:44;;;;;;;30.13;6.13;;;11.10;99.90;;;;;;5053328;28;20808;-74
2022/06/11 01:30:31;;;;;;;31.38;6.00;;;11.00;99.90;;;;;;5040945;28;20558;-73
2022/06/11 01:33:13;;;;;;;28.17;5.93;;;11.00;99.90;;;;;;5049947;28;20558;-74
2022/06/11 01:35:48;;;;;;;35.00;5.63;;;11.00;99.90;;;;;;5053123;28;20487;-73
2022/06/11 01:38:30;;;;;;;34.10;6.20;;;11.00;99.90;;;;;;5046643;28;20060;-74
2022/06/11 01:41:05;;;;;;;26.40;5.70;;;10.90;99.90;;;;;;5051381;28;20041;-74
2022/06/11 01:43:39;;;;;;;24.40;5.43;;;10.90;99.90;;;;;;5053132;28;20538;-74
2022/06/11 01:46:14;;;;;;;29.50;6.15;;;10.90;99.90;;;;;;5051362;28;20114;-74
2022/06/11 01:48:52;;;;;;;26.05;5.57;;;10.90;99.90;;;;;;5061009;28;20041;-73
2022/06/11 01:51:24;;;;;;;31.20;5.57;;;10.90;99.90;;;;;;5052960;28;20435;-73
2022/06/11 01:53:52;;;;;;;32.38;5.53;;;10.90;99.90;;;;;;5057977;28;20029;-74
2022/06/11 01:56:46;;;;;;;29.63;6.15;;;10.90;99.90;;;;;;5033568;28;20945;-74
2022/06/11 01:59:41;;;;;;;27.42;5.25;;;10.90;99.90;;;;;;5029585;28;20052;-73
2022/06/11 02:02:25;;;;;;;28.98;5.45;;;10.90;99.90;;;;;;5043470;28;20146;-73
2022/06/11 02:05:23;;;;;;;27.70;5.43;;;10.80;99.90;;;;;;5054509;28;20086;-74
2022/06/11 02:08:08;;;;;;;29.67;5.78;;;10.80;99.90;;;;;;5055632;28;20059;-74
2022/06/11 02:11:01;;;;;;;30.52;5.05;;;10.90;99.90;;;;;;5057591;28;20096;-74
2022/06/11 02:13:35;;;;;;;21.20;5.35;;;10.80;99.90;;;;;;4995868;28;20491;-73
2022/06/11 02:16:19;;;;;;;35.55;6.68;;;10.80;99.90;;;;;;5054082;28;20743;-74
2022/06/11 02:18:48;;;;;;;23.20;5.53;;;10.90;99.90;;;;;;5055792;28;20478;-74
2022/06/11 02:21:17;;;;;;;27.10;5.72;;;10.90;99.90;;;;;;5056218;28;20417;-74
2022/06/11 02:24:09;;;;;;;32.20;5.82;;;10.90;99.90;;;;;;5053729;28;20063;-74
2022/06/11 02:26:39;;;;;;;28.05;7.07;;;10.90;99.90;;;;;;5053138;28;20790;-73
2022/06/11 02:29:07;;;;;;;25.98;5.70;;;10.90;99.90;;;;;;5040203;28;20040;-74
2022/06/11 02:31:38;;;;;;;30.75;5.00;;;10.90;99.90;;;;;;5042621;28;20064;-74
2022/06/11 02:34:06;;;;;;;28.05;5.05;;;10.80;99.90;;;;;;5051952;28;20039;-74
2022/06/11 02:37:02;;;;;;;22.88;4.82;;;10.80;99.90;;;;;;5051133;28;20033;-74
2022/06/11 02:39:35;;;;;;;23.73;5.20;;;10.80;99.90;;;;;;5048320;28;20526;-74
2022/06/11 02:42:03;;;;;;;25.95;4.28;;;10.70;99.90;;;;;;5056636;28;20078;-73
2022/06/11 02:44:29;;;;;;;29.27;5.97;;;10.70;99.90;;;;;;5063109;28;20033;-74
2022/06/11 02:46:55;;;;;;;26.05;4.97;;;10.70;99.90;;;;;;5052249;28;20039;-73
2022/06/11 02:49:24;;;;;;;32.80;4.80;;;10.80;99.90;;;;;;5057576;28;20111;-73
2022/06/11 02:51:53;;;;;;;23.55;5.00;;;10.90;99.90;;;;;;5043876;28;20024;-74
2022/06/11 02:54:20;;;;;;;29.63;5.28;;;10.80;99.90;;;;;;5059900;28;20064;-74
2022/06/11 02:56:48;;;;;;;25.38;4.72;;;10.80;99.90;;;;;;5056606;28;20028;-74
2022/06/11 02:59:14;;;;;;;25.42;5.28;;;10.80;99.90;;;;;;5054579;28;20051;-74
2022/06/11 03:01:41;;;;;;;26.52;4.95;;;10.70;99.90;;;;;;5056740;28;20445;-74
2022/06/11 03:04:07;;;;;;;38.75;5.82;;;10.70;99.90;;;;;;5049459;28;20029;-74
2022/06/11 03:06:33;;;;;;;21.23;6.15;;;10.60;99.90;;;;;;5045402;28;20029;-74
2022/06/11 03:08:59;;;;;;;27.75;5.40;;;10.60;99.90;;;;;;5032523;28;20078;-74
2022/06/11 03:11:26;;;;;;;27.20;4.68;;;10.70;99.90;;;;;;5037112;28;20025;-74
2022/06/11 03:13:52;;;;;;;26.33;5.35;;;10.70;99.90;;;;;;5039815;28;20036;-74
2022/06/11 03:16:17;;;;;;;37.53;6.40;;;10.80;99.90;;;;;;5041704;28;20024;-74
2022/06/11 03:18:43;;;;;;;29.50;6.68;;;10.80;99.90;;;;;;5057357;28;20233;-74
2022/06/11 03:21:09;;;;;;;36.05;5.80;;;10.80;99.90;;;;;;5033765;28;20032;-74
2022/06/11 03:23:36;;;;;;;32.20;5.10;;;10.80;99.90;;;;;;5055393;28;20376;-75
2022/06/11 03:26:02;;;;;;;36.88;5.68;;;10.80;99.90;;;;;;5059018;28;20501;-75
2022/06/11 03:28:28;;;;;;;32.15;5.38;;;10.80;99.90;;;;;;5048691;28;20825;-75
2022/06/11 03:30:55;;;;;;;28.90;5.70;;;10.80;99.90;;;;;;5058207;28;20082;-74
2022/06/11 03:33:22;;;;;;;27.48;5.43;;;10.80;99.90;;;;;;5052707;28;20114;-75
2022/06/11 03:35:49;;;;;;;19.73;4.85;;;10.80;99.90;;;;;;5050348;28;20029;-75
2022/06/11 03:38:15;;;;;;;26.67;5.13;;;10.70;99.90;;;;;;5053672;28;20052;-74
2022/06/11 03:40:41;;;;;;;25.52;4.90;;;10.60;99.90;;;;;;5049316;28;20048;-74
2022/06/11 03:43:07;;;;;;;20.15;4.30;;;10.50;99.90;;;;;;5059789;28;20071;-75
2022/06/11 03:45:33;;;;;;;22.92;3.83;;;10.50;99.90;;;;;;5056366;28;20128;-74
2022/06/11 03:47:59;;;;;;;21.20;4.78;;;10.40;99.90;;;;;;5057911;28;20090;-75
2022/06/11 03:50:28;;;;;;;23.58;5.15;;;10.40;99.90;;;;;;5051632;28;20025;-75
2022/06/11 03:52:55;;;;;;;26.70;4.55;;;10.40;99.90;;;;;;5055544;28;20056;-75
2022/06/11 03:55:23;;;;;;;19.88;4.38;;;10.40;99.90;;;;;;5051534;28;20039;-74
2022/06/11 03:57:49;;;;;;;34.00;5.20;;;10.40;99.90;;;;;;5053955;28;20518;-75
2022/06/11 04:01:14;;;;;;;24.52;4.22;;;10.40;99.90;;;;;;5058255;28;20105;-75
2022/06/11 04:03:05;;;;;;;25.02;5.10;;;10.40;99.90;;;;;;5055386;28;20025;-75
2022/06/11 04:05:31;;;;;;;40.55;6.05;;;10.40;99.90;;;;;;5051520;28;20040;-75
2022/06/11 04:07:57;;;;;;;28.90;5.65;;;10.40;99.90;;;;;;5052080;28;20044;-75
2022/06/11 04:10:23;;;;;;;31.75;5.38;;;10.40;99.90;;;;;;5048722;28;20324;-71
2022/06/11 04:12:48;;;;;;;28.00;5.07;;;10.40;99.90;;;;;;5061561;28;20426;-75
2022/06/11 04:15:14;;;;;;;34.63;5.40;;;10.50;99.90;;;;;;5059646;28;20523;-75
2022/06/11 04:17:40;;;;;;;22.80;4.75;;;10.50;99.90;;;;;;5061122;28;20028;-75
2022/06/11 04:20:06;;;;;;;27.08;5.28;;;10.60;99.90;;;;;;5052472;28;20135;-75
2022/06/11 04:22:32;;;;;;;23.55;5.03;;;10.50;99.90;;;;;;5054464;28;20055;-75
2022/06/11 04:24:58;;;;;;;34.45;5.05;;;10.60;99.90;;;;;;5058610;28;20366;-76
2022/06/11 04:27:24;;;;;;;26.63;5.28;;;10.60;99.90;;;;;;5049287;28;20037;-74
2022/06/11 04:29:56;;;;;;;32.85;5.93;;;10.60;99.90;;;;;;5054914;28;20037;-75
2022/06/11 04:32:24;;;;;;;33.45;5.63;;;10.70;99.90;;;;;;5060174;28;20036;-75
2022/06/11 04:34:51;;;;;;;31.08;5.80;;;10.70;99.90;;;;;;5056341;28;20103;-75
2022/06/11 04:37:20;;;;;;;32.85;5.78;;;10.80;99.90;;;;;;5061704;28;20032;-75
2022/06/11 04:39:50;;;;;;;35.22;5.50;;;10.90;99.90;;;;;;5050539;28;20051;-75
2022/06/11 04:42:17;;;;;;;27.30;5.30;;;10.90;99.90;;;;;;5048095;28;20024;-75
2022/06/11 04:44:45;;;;;;;26.38;7.15;;;11.00;99.90;;;;;;5065139;28;20024;-75
2022/06/11 04:47:13;;;;;;;28.92;5.88;;;11.00;99.90;;;;;;5049325;28;20028;-75
2022/06/11 04:49:39;;;;;;;35.80;6.22;;;11.10;99.90;;;;;;5048066;28;20028;-75
2022/06/11 04:52:06;;;;;;;25.88;4.95;;;11.10;99.90;;;;;;5055842;28;20038;-74
2022/06/11 04:54:32;;;;;;;33.10;5.57;;;11.20;99.90;;;;;;5059859;28;20032;-75
2022/06/11 04:56:58;;;;;;;31.55;5.30;;;11.20;99.90;;;;;;5053053;28;20028;-75
2022/06/11 04:59:24;;;;;;;42.22;6.68;;;11.30;99.90;;;;;;5055493;28;20048;-75
2022/06/11 05:01:50;;;;;;;36.92;6.50;;;11.30;99.90;;;;;;5055867;28;20111;-75
2022/06/11 05:04:16;;;;;;;32.50;6.65;;;11.40;99.90;;;;;;5039778;28;20077;-75
2022/06/11 05:06:45;;;;;;;32.55;6.80;;;11.60;99.90;;;;;;5060559;28;20032;-75
2022/06/11 05:09:15;;;;;;;47.30;7.82;;;11.60;99.90;;;;;;5050665;28;20037;-75
2022/06/11 05:11:41;;;;;;;33.33;5.53;;;11.70;99.90;;;;;;5052284;28;20055;-75
2022/06/11 05:14:07;;;;;;;34.70;5.90;;;11.80;99.90;;;;;;5055228;28;20036;-75
2022/06/11 05:16:35;;;;;;;28.80;5.72;;;11.90;99.90;;;;;;5057092;28;20438;-75
2022/06/11 05:19:00;;;;;;;30.90;6.35;;;11.90;99.90;;;;;;5055262;28;20505;-75
2022/06/11 05:21:26;;;;;;;33.15;5.57;;;12.00;99.90;;;;;;5050055;28;20155;-75
2022/06/11 05:23:52;;;;;;;25.77;5.88;;;12.00;99.90;;;;;;5062757;28;20179;-75
2022/06/11 05:26:28;;;;;;;29.60;5.60;;;12.10;99.90;;;;;;5058410;28;20156;-74
2022/06/11 05:28:53;;;;;;;29.77;5.95;;;12.10;99.90;;;;;;5030744;28;20136;-75
2022/06/11 05:31:19;;;;;;;31.58;5.95;;;12.10;99.90;;;;;;5035853;28;20060;-74
2022/06/11 05:33:45;;;;;;;32.78;5.18;;;12.20;99.90;;;;;;5056914;28;21060;-74
2022/06/11 05:36:13;;;;;;;29.88;6.03;;;12.30;99.90;;;;;;5055826;28;20704;-74
2022/06/11 05:38:39;;;;;;;34.10;6.95;;;12.30;99.90;;;;;;5050428;28;20021;-74
2022/06/11 05:41:05;;;;;;;34.42;6.05;;;12.40;99.90;;;;;;5050372;28;20033;-74
2022/06/11 05:43:31;;;;;;;33.70;5.25;;;12.40;99.90;;;;;;5056794;28;20101;-74
2022/06/11 05:46:02;;;;;;;28.92;6.07;;;12.50;99.90;;;;;;5057597;28;20037;-74
2022/06/11 05:48:32;;;;;;;30.10;5.50;;;12.60;99.90;;;;;;5049658;28;20124;-75
2022/06/11 05:50:59;;;;;;;29.05;5.05;;;12.70;99.90;;;;;;5039457;28;20617;-74
2022/06/11 05:53:28;;;;;;;29.45;5.28;;;12.80;99.90;;;;;;5052768;28;20517;-74
2022/06/11 05:55:57;;;;;;;20.55;4.32;;;12.90;99.90;;;;;;5054748;28;20536;-74
2022/06/11 05:58:28;;;;;;;35.40;5.80;;;13.00;99.90;;;;;;5054487;28;20032;-74
2022/06/11 06:00:54;;;;;;;;;;;13.00;99.90;;;;;;5055236;28;20057;-74
2022/06/11 06:03:20;;;;;;;28.00;5.28;;;13.10;99.90;;;;;;5052222;28;19916;-76
2022/06/11 06:05:46;;;;;;;31.27;5.07;;;13.20;99.90;;;;;;5046765;28;20028;-75
2022/06/11 06:08:11;;;;;;;31.77;5.18;;;13.40;99.90;;;;;;5053465;28;20032;-74
2022/06/11 06:10:37;;;;;;;30.38;4.70;;;13.50;99.90;;;;;;5056199;28;20028;-74
2022/06/11 06:13:45;;;;;;;28.52;4.13;;;13.50;99.90;;;;;;5038120;28;20104;-74
2022/06/11 06:15:51;;;;;;;35.65;5.50;;;13.60;99.90;;;;;;5057688;28;20028;-74
2022/06/11 06:18:16;;;;;;;30.25;4.43;;;13.70;99.90;;;;;;5059397;28;20035;-74
2022/06/11 06:20:42;;;;;;;31.88;4.50;;;13.70;99.90;;;;;;5056610;28;20025;-76
2022/06/11 06:23:07;;;;;;;26.75;4.03;;;13.80;99.90;;;;;;5057170;28;20029;-75
2022/06/11 06:25:33;;;;;;;27.70;3.78;;;13.80;99.90;;;;;;5056782;28;20036;-73
2022/06/11 06:27:59;;;;;;;27.13;4.75;;;13.90;99.90;;;;;;5058978;28;20041;-74
2022/06/11 06:30:24;;;;;;;26.15;3.95;;;14.10;99.90;;;;;;5039464;28;20899;-74
2022/06/11 06:32:50;;;;;;;26.42;5.38;;;14.20;99.90;;;;;;5054033;28;20406;-74
2022/06/11 06:35:15;;;;;;;28.55;4.07;;;14.30;99.90;;;;;;5036692;28;20060;-73
2022/06/11 06:37:41;;;;;;;21.15;4.18;;;14.30;99.90;;;;;;5041064;28;20032;-74
2022/06/11 06:40:07;;;;;;;23.15;3.78;;;14.40;99.90;;;;;;5053547;28;20127;-73
2022/06/11 06:42:33;;;;;;;21.75;3.33;;;14.40;99.90;;;;;;5061323;28;20052;-73
2022/06/11 06:44:59;;;;;;;22.55;5.90;;;14.60;99.90;;;;;;5051777;28;20033;-74
2022/06/11 06:47:24;;;;;;;18.38;4.10;;;14.70;99.90;;;;;;5051652;28;20048;-74
2022/06/11 06:49:50;;;;;;;20.80;3.58;;;14.80;99.90;;;;;;5048960;28;20029;-74
2022/06/11 06:52:15;;;;;;;18.83;3.35;;;14.90;99.90;;;;;;5049534;28;20028;-74
2022/06/11 06:54:41;;;;;;;17.98;3.10;;;15.10;99.90;;;;;;5050026;28;20020;-74
2022/06/11 06:57:07;;;;;;;9.85;2.83;;;15.30;99.90;;;;;;5055998;28;20054;-73
2022/06/11 06:59:33;;;;;;;21.38;3.55;;;15.50;99.90;;;;;;5056819;28;20080;-75
2022/06/11 07:01:58;;;;;;;20.10;3.22;;;15.70;99.90;;;;;;5062022;28;20872;-75
2022/06/11 07:04:24;;;;;;;16.23;3.38;;;16.00;99.90;;;;;;5039165;28;20032;-76
2022/06/11 07:06:50;;;;;;;20.25;3.60;;;16.20;99.90;;;;;;5056823;28;20025;-75
2022/06/11 07:09:15;;;;;;;24.92;4.22;;;16.30;99.90;;;;;;5042004;28;20147;-77
2022/06/11 07:11:41;;;;;;;21.17;3.83;;;16.70;99.90;;;;;;5061997;28;20120;-76
2022/06/11 07:14:06;;;;;;;20.13;2.25;;;17.20;99.90;;;;;;5057717;28;20052;-74
2022/06/11 07:16:41;;;;;;;20.83;2.92;;;17.50;99.90;;;;;;5061341;28;20777;-76
2022/06/11 07:19:14;;;;;;;19.67;2.95;;;17.80;99.90;;;;;;5056633;28;20029;-75
2022/06/11 07:21:42;;;;;;;16.67;2.88;;;17.90;99.90;;;;;;5060321;28;20056;-74
2022/06/11 07:24:16;;;;;;;55.45;34.58;;;17.90;99.90;;;;;;5057435;28;20482;-74
2022/06/11 07:26:46;;;;;;;15.10;5.40;;;17.80;99.90;;;;;;5049393;28;20036;-75
2022/06/11 07:29:35;;;;;;;14.45;2.97;;;17.80;99.90;;;;;;5058713;28;20074;-76
2022/06/11 07:32:06;;;;;;;14.68;2.28;;;18.10;99.90;;;;;;5047803;28;20857;-75
2022/06/11 07:34:34;;;;;;;14.85;1.95;;;22.60;99.90;;;;;;5054690;28;20040;-75
2022/06/11 07:37:00;;;;;;;15.90;2.33;;;25.80;91.40;;;;;;5053895;28;20056;-75
2022/06/11 07:39:26;;;;;;;12.73;2.10;;;29.10;61.10;;;;;;5056965;28;20051;-75
2022/06/11 07:41:51;;;;;;;11.73;2.22;;;31.10;48.00;;;;;;5053306;28;20479;-75
2022/06/11 07:44:17;;;;;;;12.93;2.65;;;32.90;44.70;;;;;;5058295;28;20031;-76
2022/06/11 07:46:43;;;;;;;10.00;2.20;;;33.60;40.70;;;;;;5060109;28;20032;-75
2022/06/11 07:49:08;;;;;;;10.77;2.10;;;34.40;39.10;;;;;;5043625;28;20037;-74
2022/06/11 07:51:34;;;;;;;8.85;2.28;;;34.60;36.60;;;;;;5051807;28;20027;-75
2022/06/11 07:53:59;;;;;;;8.27;2.08;;;36.10;35.10;;;;;;5060262;28;20487;-74
2022/06/11 07:56:25;;;;;;;9.80;2.20;;;35.80;35.10;;;;;;5049878;28;20044;-75
2022/06/11 07:58:52;;;;;;;12.30;2.22;;;36.20;33.50;;;;;;5035640;28;20048;-75
2022/06/11 08:01:19;;;;;;;11.27;2.22;;;36.10;34.20;;;;;;5060702;28;20119;-75
2022/06/11 08:03:44;;;;;;;8.77;2.10;;;36.30;33.20;;;;;;5054378;28;20062;-77
2022/06/11 08:06:10;;;;;;;8.65;2.03;;;36.40;36.00;;;;;;5055094;28;20044;-75
2022/06/11 08:08:36;;;;;;;8.02;2.13;;;37.80;32.40;;;;;;5058545;28;20068;-75
2022/06/11 08:11:04;;;;;;;10.80;2.05;;;37.50;33.20;;;;;;5058952;28;20036;-76
2022/06/11 08:13:30;;;;;;;9.73;2.13;;;37.80;31.20;;;;;;5055765;28;20036;-73
2022/06/11 08:15:56;;;;;;;9.18;2.00;;;38.30;30.30;;;;;;5053073;28;20548;-75
2022/06/11 08:18:24;;;;;;;10.35;2.05;;;38.30;33.20;;;;;;5058390;28;20123;-75
2022/06/11 08:20:51;;;;;;;8.57;2.35;;;38.10;30.50;;;;;;5058406;28;20029;-76
2022/06/11 08:23:18;;;;;;;9.63;1.83;;;38.70;30.50;;;;;;5062052;28;20086;-74
2022/06/11 08:25:44;;;;;;;10.15;1.95;;;39.50;30.70;;;;;;5036336;28;20028;-75
2022/06/11 08:28:12;;;;;;;11.25;2.13;;;36.80;30.40;;;;;;5056705;28;20041;-73
2022/06/11 08:30:38;;;;;;;12.48;1.73;;;36.40;34.10;;;;;;5055978;28;20044;-75
2022/06/11 08:33:04;;;;;;;11.27;3.28;;;35.90;34.90;;;;;;5057062;28;20033;-73
2022/06/11 08:35:33;;;;;;;12.80;2.38;;;33.30;35.40;;;;;;5063049;28;20046;-75
2022/06/11 08:38:00;;;;;;;8.07;1.60;;;33.00;38.30;;;;;;5062573;28;20620;-74
2022/06/11 08:40:51;;;;;;;5.60;1.58;;;34.50;37.80;;;;;;5060425;28;20024;-74
2022/06/11 08:43:30;;;;;;;11.63;2.17;;;31.90;37.60;;;;;;5058798;28;20035;-74
2022/06/11 08:46:00;;;;;;;9.55;1.92;;;29.20;45.80;;;;;;5053225;28;20693;-75
2022/06/11 08:48:35;;;;;;;8.30;1.92;;;30.90;48.60;;;;;;5061630;28;20047;-75
2022/06/11 08:51:03;;;;;;;11.07;2.25;;;29.80;47.40;;;;;;5046956;28;20024;-75
2022/06/11 08:53:32;;;;;;;11.48;2.60;;;31.80;46.30;;;;;;5048843;28;20058;-74
2022/06/11 08:55:58;;;;;;;11.55;2.13;;;32.60;42.10;;;;;;5020442;28;20025;-74
2022/06/11 08:58:34;;;;;;;9.15;3.10;;;32.10;41.20;;;;;;5045546;28;20083;-75
2022/06/11 09:01:21;;;;;;;15.88;2.38;;;30.60;44.30;;;;;;5049391;28;20076;-74
2022/06/11 09:04:08;;;;;;;10.82;2.53;;;28.20;48.70;;;;;;5056779;28;20395;-76
2022/06/11 09:06:44;;;;;;;13.37;2.33;;;27.90;51.60;;;;;;5047227;28;20070;-74
2022/06/11 09:09:19;;;;;;;15.13;3.03;;;29.70;45.80;;;;;;5050176;28;20453;-74
2022/06/11 09:12:03;;;;;;;11.57;2.58;;;29.70;46.90;;;;;;5054161;28;20040;-76
2022/06/11 09:14:36;;;;;;;7.82;1.85;;;28.40;47.10;;;;;;5046758;28;20036;-74
2022/06/11 09:17:05;;;;;;;10.77;2.05;;;29.20;57.50;;;;;;5057118;28;20040;-74
2022/06/11 09:19:36;;;;;;;10.15;2.03;;;30.50;48.40;;;;;;5047517;28;20470;-74
2022/06/11 09:22:23;;;;;;;11.38;1.95;;;29.50;48.50;;;;;;5044499;28;20048;-74
2022/06/11 09:25:18;;;;;;;11.38;1.83;;;29.60;50.10;;;;;;5053262;28;20112;-75
2022/06/11 09:28:24;;;;;;;11.45;1.83;;;30.40;47.90;;;;;;5052362;28;20572;-71
2022/06/11 09:31:07;;;;;;;18.10;2.90;;;31.70;50.70;;;;;;5060234;28;20594;-74
2022/06/11 09:33:41;;;;;;;9.40;2.13;;;32.90;44.00;;;;;;5058421;28;20430;-76
2022/06/11 09:36:16;;;;;;;16.65;2.60;;;33.00;38.90;;;;;;5057371;28;20098;-74
2022/06/11 09:39:19;;;;;;;11.30;2.90;;;33.50;43.70;;;;;;5047421;28;20029;-73
2022/06/11 09:41:54;;;;;;;12.45;2.38;;;33.50;39.90;;;;;;5049396;28;20084;-76
2022/06/11 09:45:01;;;;;;;10.15;2.40;;;32.70;38.20;;;;;;5055229;28;20059;-74
2022/06/11 09:48:17;;;;;;;15.55;2.95;;;30.60;44.70;;;;;;5028457;28;20181;-74
2022/06/11 09:50:53;;;;;;;11.90;2.65;;;28.70;47.30;;;;;;5044370;28;20054;-74
2022/06/11 09:53:40;;;;;;;11.80;3.00;;;27.80;53.80;;;;;;5047096;28;20077;-75
2022/06/11 09:56:09;;;;;;;7.68;2.00;;;28.90;54.50;;;;;;5049387;28;20048;-74
2022/06/11 09:58:35;;;;;;;14.43;2.80;;;30.20;52.30;;;;;;5057708;28;20074;-75
2022/06/11 10:01:09;;;;;;;9.75;1.90;;;30.80;44.60;;;;;;5057689;28;20142;-75
2022/06/11 10:03:52;;;;;;;10.73;2.45;;;30.80;49.90;;;;;;5055642;28;20473;-75
2022/06/11 10:06:24;;;;;;;10.27;2.33;;;31.30;48.10;;;;;;5049065;28;20617;-74
2022/06/11 10:08:53;;;;;;;14.05;2.45;;;31.40;43.60;;;;;;5038686;28;20064;-74
2022/06/11 10:11:24;;;;;;;9.63;2.20;;;31.20;47.20;;;;;;5050118;28;20051;-74
2022/06/11 10:14:28;;;;;;;9.77;2.45;;;30.70;44.60;;;;;;5051187;28;20032;-74
2022/06/11 10:16:50;;;;;;;10.50;2.15;;;31.00;42.70;;;;;;5056002;28;20036;-75
2022/06/11 10:19:55;;;;;;;7.25;2.00;;;31.50;44.00;;;;;;5046294;28;20029;-74
2022/06/11 10:22:46;;;;;;;14.13;2.35;;;31.30;50.30;;;;;;5035807;28;20467;-73
2022/06/11 10:25:18;;;;;;;13.25;2.17;;;32.00;49.90;;;;;;5062548;28;20035;-76
2022/06/11 10:27:53;;;;;;;8.57;2.08;;;31.70;44.00;;;;;;5053581;28;20048;-75
2022/06/11 10:30:34;;;;;;;11.50;2.75;;;31.30;49.00;;;;;;5059963;28;20161;-75
2022/06/11 10:33:06;;;;;;;13.95;2.85;;;30.90;44.00;;;;;;5058046;28;20565;-74
2022/06/11 10:36:04;;;;;;;13.50;2.65;;;30.70;51.10;;;;;;5058259;28;20067;-73
2022/06/11 10:38:48;;;;;;;9.77;2.40;;;30.40;44.40;;;;;;5040404;28;20045;-74
2022/06/11 10:41:46;;;;;;;11.02;2.53;;;30.40;43.30;;;;;;5051160;28;20036;-74
2022/06/11 10:44:19;;;;;;;14.23;2.70;;;30.10;50.00;;;;;;5039252;28;20028;-75
2022/06/11 10:46:45;;;;;;;9.18;2.70;;;30.70;51.70;;;;;;5047161;28;21055;-75
2022/06/11 10:49:14;;;;;;;8.90;1.95;;;31.10;43.50;;;;;;5051946;28;20044;-75
2022/06/11 10:51:44;;;;;;;13.63;2.83;;;30.40;45.70;;;;;;5049369;28;20044;-77
2022/06/11 10:54:13;;;;;;;11.70;2.42;;;30.40;51.00;;;;;;5044281;28;20028;-75
2022/06/11 10:56:52;;;;;;;10.75;2.65;;;29.40;49.00;;;;;;5050351;28;20025;-75
2022/06/11 10:59:23;;;;;;;15.20;2.40;;;28.80;50.70;;;;;;5057083;28;20515;-75
2022/06/11 11:02:13;;;;;;;14.47;2.93;;;29.10;56.90;;;;;;5057492;28;20035;-75
2022/06/11 11:04:53;;;;;;;12.15;2.83;;;29.50;52.30;;;;;;5049935;28;20285;-76
2022/06/11 11:07:20;;;;;;;12.20;2.53;;;29.50;51.60;;;;;;5054893;28;20064;-74
2022/06/11 11:09:46;;;;;;;12.23;2.50;;;29.00;50.10;;;;;;5050385;28;20024;-73
2022/06/11 11:12:39;;;;;;;9.15;1.85;;;28.80;56.90;;;;;;5054543;28;20035;-73
2022/06/11 11:15:16;;;;;;;12.38;2.30;;;29.30;55.90;;;;;;5051328;28;20120;-75
2022/06/11 11:18:01;;;;;;;12.20;2.35;;;29.70;50.30;;;;;;5049151;28;20038;-73
2022/06/11 11:20:39;;;;;;;13.40;2.70;;;29.30;52.40;;;;;;5053630;28;20025;-74
2022/06/11 11:23:19;;;;;;;10.73;2.53;;;29.30;53.70;;;;;;5052968;28;20028;-73
2022/06/11 11:26:10;;;;;;;13.43;2.33;;;28.00;55.40;;;;;;5054313;28;20036;-75
2022/06/11 11:28:53;;;;;;;15.57;2.75;;;27.70;56.40;;;;;;5052392;28;20071;-73
2022/06/11 11:31:22;;;;;;;15.23;2.90;;;27.60;59.50;;;;;;5053792;28;20025;-72
2022/06/11 11:33:59;;;;;;;19.23;3.53;;;27.70;61.50;;;;;;5042633;28;20034;-73
2022/06/11 11:36:28;;;;;;;15.98;2.97;;;27.00;64.80;;;;;;5046265;28;20056;-73
2022/06/11 11:39:16;;;;;;;15.40;2.65;;;26.10;68.70;;;;;;5051512;28;20360;-73
2022/06/11 11:42:02;;;;;;;13.35;2.17;;;25.90;70.40;;;;;;5049172;28;20052;-71
2022/06/11 11:44:28;;;;;;;13.40;3.00;;;25.70;70.40;;;;;;5039350;28;20060;-72
2022/06/11 11:46:59;;;;;;;12.25;2.33;;;25.60;72.80;;;;;;5044870;28;20029;-72
2022/06/11 11:49:27;;;;;;;;;;;25.20;87.70;;;;;;5042701;28;20029;-72
2022/06/11 11:51:55;;;;;;;9.77;2.47;;;25.20;75.00;;;;;;5049305;28;20472;-71
2022/06/11 11:54:27;;;;;;;16.08;2.53;;;25.10;67.90;;;;;;5040520;28;20030;-73
2022/06/11 11:57:12;;;;;;;14.09;2.21;;;24.80;71.80;;;;;;4706959;28;10002765;-72
2022/06/11 11:59:48;;;;;;;9.50;1.83;;;24.80;76.30;;;;;;5053450;28;20070;-71
2022/06/11 12:02:24;;;;;;;14.38;2.28;;;24.70;71.70;;;;;;5046949;28;20029;-73
2022/06/11 12:04:57;;;;;;;11.77;2.40;;;24.40;69.70;;;;;;5050376;28;20037;-72
2022/06/11 12:07:39;;;;;;;14.07;2.58;;;24.00;73.20;;;;;;5045535;28;20028;-72
2022/06/11 12:10:16;;;;;;;12.20;2.20;;;24.00;86.20;;;;;;5047058;28;20040;-73
2022/06/11 12:12:44;;;;;;;17.73;3.28;;;23.90;78.70;;;;;;5053064;28;20212;-72
2022/06/11 12:15:29;;;;;;;16.98;2.88;;;24.00;98.10;;;;;;5045642;28;20067;-73
2022/06/11 12:18:01;;;;;;;13.80;2.20;;;24.20;78.50;;;;;;5036147;28;20031;-72
2022/06/11 12:21:04;;;;;;;15.80;2.50;;;24.00;78.90;;;;;;5044820;28;20029;-73
2022/06/11 12:23:44;;;;;;;17.27;2.55;;;24.30;80.30;;;;;;4975379;28;20053;-72
2022/06/11 12:26:21;;;;;;;16.25;2.45;;;24.30;90.30;;;;;;5032399;28;20441;-72
2022/06/11 12:29:06;;;;;;;12.77;2.08;;;24.60;84.60;;;;;;5040345;28;20036;-72
2022/06/11 12:31:33;;;;;;;14.80;3.13;;;24.70;86.00;;;;;;5042606;28;20111;-72
2022/06/11 12:34:01;;;;;;;15.70;2.70;;;24.90;86.20;;;;;;5052316;28;20127;-71
2022/06/11 12:36:47;;;;;;;16.63;3.00;;;24.70;94.80;;;;;;5053421;28;20032;-72
2022/06/11 12:39:34;;;;;;;14.82;2.60;;;24.90;76.50;;;;;;5009971;28;20748;-72
2022/06/11 12:42:12;;;;;;;15.38;2.72;;;25.10;96.10;;;;;;5055627;28;20468;-71
2022/06/11 12:45:18;;;;;;;15.93;2.95;;;24.80;79.70;;;;;;5052375;28;20040;-72
2022/06/11 12:47:45;;;;;;;15.18;3.22;;;24.50;79.40;;;;;;5030893;28;20415;-73
2022/06/11 12:50:31;;;;;;;11.60;2.15;;;24.40;91.60;;;;;;5040705;28;20043;-71
2022/06/11 12:53:14;;;;;;;15.48;2.63;;;24.90;89.40;;;;;;5060105;28;20052;-71
2022/06/11 12:55:56;;;;;;;12.75;2.45;;;24.70;85.60;;;;;;5056339;28;20025;-71
2022/06/11 12:58:56;;;;;;;13.48;3.20;;;24.30;83.80;;;;;;5057342;28;20546;-73
2022/06/11 13:01:30;;;;;;;19.02;3.22;;;23.80;91.40;;;;;;5038189;28;20044;-73
2022/06/11 13:04:07;;;;;;;14.60;2.70;;;23.60;93.70;;;;;;5042999;28;20027;-71
2022/06/11 13:06:45;;;;;;;15.10;2.42;;;23.20;91.30;;;;;;5056781;28;20732;-71
2022/06/11 13:09:35;;;;;;;17.58;2.83;;;23.60;99.90;;;;;;5049882;28;20040;-71